sensor_id;sensor_type;location;lat;lon;timestamp;P1;durP1;ratioP1;P2;durP2;ratioP2
2622;SDS011;1321;48.690;9.022;2023-05-10T00:02:03;16.10;;;15.60;;
2622;SDS011;1321;48.690;9.022;2023-05-10T00:04:40;16.10;;;15.70;;
2622;SDS011;1321;48.690;9.022;2023-05-10T00:07:46;15.93;;;15.53;;
2622;SDS011;1321;48.690;9.022;2023-05-10T00:10:35;16.27;;;15.87;;
2622;SDS011;1321;48.690;9.022;2023-05-10T00:13:10;16.30;;;15.80;;
2622;SDS011;1321;48.690;9.022;2023-05-10T00:15:59;16.00;;;15.60;;
2622;SDS011;1321;48.690;9.022;2023-05-10T00:18:57;16.63;;;16.13;;
2622;SDS011;1321;48.690;9.022;2023-05-10T00:21:38;16.23;;;15.83;;
2622;SDS011;1321;48.690;9.022;2023-05-10T00:24:22;16.37;;;15.97;;
2622;SDS011;1321;48.690;9.022;2023-05-10T00:26:51;16.53;;;16.03;;
2622;SDS011;1321;48.690;9.022;2023-05-10T00:29:21;16.60;;;16.20;;
2622;SDS011;1321;48.690;9.022;2023-05-10T00:31:51;16.73;;;16.23;;
2622;SDS011;1321;48.690;9.022;2023-05-10T00:34:21;16.97;;;16.47;;
2622;SDS011;1321;48.690;9.022;2023-05-10T00:36:49;16.70;;;16.30;;
2622;SDS011;1321;48.690;9.022;2023-05-10T00:39:17;16.60;;;16.20;;
2622;SDS011;1321;48.690;9.022;2023-05-10T00:41:45;16.63;;;16.13;;
2622;SDS011;1321;48.690;9.022;2023-05-10T00:44:14;17.03;;;16.43;;
2622;SDS011;1321;48.690;9.022;2023-05-10T00:46:42;16.63;;;16.23;;
2622;SDS011;1321;48.690;9.022;2023-05-10T00:49:10;16.40;;;15.90;;
2622;SDS011;1321;48.690;9.022;2023-05-10T00:51:40;16.27;;;15.80;;
2622;SDS011;1321;48.690;9.022;2023-05-10T00:54:19;16.00;;;15.60;;
2622;SDS011;1321;48.690;9.022;2023-05-10T00:57:00;16.23;;;15.73;;
2622;SDS011;1321;48.690;9.022;2023-05-10T00:59:37;16.53;;;16.03;;
2622;SDS011;1321;48.690;9.022;2023-05-10T01:02:05;16.40;;;16.00;;
2622;SDS011;1321;48.690;9.022;2023-05-10T01:04:34;15.80;;;15.40;;
2622;SDS011;1321;48.690;9.022;2023-05-10T01:07:05;16.00;;;15.60;;
2622;SDS011;1321;48.690;9.022;2023-05-10T01:09:33;15.00;;;14.70;;
2622;SDS011;1321;48.690;9.022;2023-05-10T01:12:02;15.30;;;14.90;;
2622;SDS011;1321;48.690;9.022;2023-05-10T01:14:34;14.70;;;14.40;;
2622;SDS011;1321;48.690;9.022;2023-05-10T01:17:04;15.00;;;14.70;;
2622;SDS011;1321;48.690;9.022;2023-05-10T01:19:34;15.43;;;14.90;;
2622;SDS011;1321;48.690;9.022;2023-05-10T01:22:08;15.73;;;15.13;;
2622;SDS011;1321;48.690;9.022;2023-05-10T01:31:18;15.20;;;14.80;;
2622;SDS011;1321;48.690;9.022;2023-05-10T01:33:58;15.20;;;14.80;;
2622;SDS011;1321;48.690;9.022;2023-05-10T01:36:30;14.90;;;14.60;;
2622;SDS011;1321;48.690;9.022;2023-05-10T01:39:01;14.90;;;14.50;;
2622;SDS011;1321;48.690;9.022;2023-05-10T01:41:36;14.67;;;14.37;;
2622;SDS011;1321;48.690;9.022;2023-05-10T01:44:13;15.20;;;14.80;;
2622;SDS011;1321;48.690;9.022;2023-05-10T01:46:49;14.70;;;14.40;;
2622;SDS011;1321;48.690;9.022;2023-05-10T01:49:25;15.00;;;14.60;;
2622;SDS011;1321;48.690;9.022;2023-05-10T01:52:03;14.90;;;14.50;;
2622;SDS011;1321;48.690;9.022;2023-05-10T01:54:41;14.90;;;14.50;;
2622;SDS011;1321;48.690;9.022;2023-05-10T01:57:21;14.87;;;14.40;;
2622;SDS011;1321;48.690;9.022;2023-05-10T02:00:29;15.00;;;14.60;;
2622;SDS011;1321;48.690;9.022;2023-05-10T02:03:22;14.93;;;14.53;;
2622;SDS011;1321;48.690;9.022;2023-05-10T02:06:30;15.17;;;14.70;;
2622;SDS011;1321;48.690;9.022;2023-05-10T02:09:10;15.07;;;14.67;;
2622;SDS011;1321;48.690;9.022;2023-05-10T02:11:45;15.30;;;14.90;;
2622;SDS011;1321;48.690;9.022;2023-05-10T02:14:16;15.10;;;14.70;;
2622;SDS011;1321;48.690;9.022;2023-05-10T02:16:46;15.80;;;15.30;;
2622;SDS011;1321;48.690;9.022;2023-05-10T02:19:37;15.53;;;15.00;;
2622;SDS011;1321;48.690;9.022;2023-05-10T02:22:17;14.97;;;14.67;;
2622;SDS011;1321;48.690;9.022;2023-05-10T02:25:35;15.60;;;15.20;;
2622;SDS011;1321;48.690;9.022;2023-05-10T02:28:35;15.80;;;15.30;;
2622;SDS011;1321;48.690;9.022;2023-05-10T02:31:59;15.60;;;15.10;;
2622;SDS011;1321;48.690;9.022;2023-05-10T02:34:41;15.37;;;14.97;;
2622;SDS011;1321;48.690;9.022;2023-05-10T02:37:51;15.87;;;15.37;;
2622;SDS011;1321;48.690;9.022;2023-05-10T02:40:37;15.77;;;15.27;;
2622;SDS011;1321;48.690;9.022;2023-05-10T02:43:21;15.60;;;15.20;;
2622;SDS011;1321;48.690;9.022;2023-05-10T02:46:25;15.77;;;15.00;;
2622;SDS011;1321;48.690;9.022;2023-05-10T02:48:53;15.80;;;15.30;;
2622;SDS011;1321;48.690;9.022;2023-05-10T02:51:25;15.20;;;14.80;;
2622;SDS011;1321;48.690;9.022;2023-05-10T02:54:06;15.47;;;15.07;;
2622;SDS011;1321;48.690;9.022;2023-05-10T02:56:40;15.30;;;14.90;;
2622;SDS011;1321;48.690;9.022;2023-05-10T02:59:17;15.20;;;14.80;;
2622;SDS011;1321;48.690;9.022;2023-05-10T03:01:45;15.73;;;14.77;;
2622;SDS011;1321;48.690;9.022;2023-05-10T03:04:30;14.87;;;14.50;;
2622;SDS011;1321;48.690;9.022;2023-05-10T03:07:15;14.60;;;14.30;;
2622;SDS011;1321;48.690;9.022;2023-05-10T03:09:47;14.70;;;14.40;;
2622;SDS011;1321;48.690;9.022;2023-05-10T03:15:36;14.90;;;14.50;;
2622;SDS011;1321;48.690;9.022;2023-05-10T03:18:23;15.00;;;14.60;;
2622;SDS011;1321;48.690;9.022;2023-05-10T03:21:14;15.10;;;14.50;;
2622;SDS011;1321;48.690;9.022;2023-05-10T03:23:54;14.70;;;14.40;;
2622;SDS011;1321;48.690;9.022;2023-05-10T03:26:36;15.50;;;14.90;;
2622;SDS011;1321;48.690;9.022;2023-05-10T03:29:09;15.30;;;14.90;;
2622;SDS011;1321;48.690;9.022;2023-05-10T03:31:38;15.50;;;15.00;;
2622;SDS011;1321;48.690;9.022;2023-05-10T03:34:07;15.20;;;14.80;;
2622;SDS011;1321;48.690;9.022;2023-05-10T03:36:35;15.20;;;14.80;;
2622;SDS011;1321;48.690;9.022;2023-05-10T03:39:03;14.97;;;14.57;;
2622;SDS011;1321;48.690;9.022;2023-05-10T03:41:31;15.27;;;14.70;;
2622;SDS011;1321;48.690;9.022;2023-05-10T03:44:09;15.10;;;14.70;;
2622;SDS011;1321;48.690;9.022;2023-05-10T03:46:47;15.03;;;14.70;;
2622;SDS011;1321;48.690;9.022;2023-05-10T03:49:15;15.00;;;14.60;;
2622;SDS011;1321;48.690;9.022;2023-05-10T03:51:54;15.37;;;14.87;;
2622;SDS011;1321;48.690;9.022;2023-05-10T03:54:45;15.47;;;15.07;;
2622;SDS011;1321;48.690;9.022;2023-05-10T03:57:21;15.70;;;15.30;;
2622;SDS011;1321;48.690;9.022;2023-05-10T04:00:11;15.50;;;15.10;;
2622;SDS011;1321;48.690;9.022;2023-05-10T04:02:58;15.37;;;14.97;;
2622;SDS011;1321;48.690;9.022;2023-05-10T04:05:46;15.60;;;15.20;;
2622;SDS011;1321;48.690;9.022;2023-05-10T04:08:14;15.97;;;15.50;;
2622;SDS011;1321;48.690;9.022;2023-05-10T04:11:04;15.63;;;15.20;;
2622;SDS011;1321;48.690;9.022;2023-05-10T04:13:58;16.53;;;16.03;;
2622;SDS011;1321;48.690;9.022;2023-05-10T04:16:32;16.00;;;15.50;;
2622;SDS011;1321;48.690;9.022;2023-05-10T04:19:07;15.70;;;15.30;;
2622;SDS011;1321;48.690;9.022;2023-05-10T04:22:08;15.80;;;15.30;;
2622;SDS011;1321;48.690;9.022;2023-05-10T04:25:18;16.20;;;15.67;;
2622;SDS011;1321;48.690;9.022;2023-05-10T04:28:27;15.90;;;15.47;;
2622;SDS011;1321;48.690;9.022;2023-05-10T04:31:30;16.40;;;15.90;;
2622;SDS011;1321;48.690;9.022;2023-05-10T04:34:49;16.37;;;15.70;;
2622;SDS011;1321;48.690;9.022;2023-05-10T04:40:42;15.87;;;15.47;;
2622;SDS011;1321;48.690;9.022;2023-05-10T04:43:35;16.80;;;16.30;;
2622;SDS011;1321;48.690;9.022;2023-05-10T04:46:11;16.30;;;15.80;;
2622;SDS011;1321;48.690;9.022;2023-05-10T04:49:09;16.23;;;15.73;;
2622;SDS011;1321;48.690;9.022;2023-05-10T04:51:53;16.23;;;15.83;;
2622;SDS011;1321;48.690;9.022;2023-05-10T04:54:47;17.13;;;16.20;;
2622;SDS011;1321;48.690;9.022;2023-05-10T04:57:23;16.50;;;16.00;;
2622;SDS011;1321;48.690;9.022;2023-05-10T05:00:19;16.13;;;15.73;;
2622;SDS011;1321;48.690;9.022;2023-05-10T05:03:28;16.00;;;15.57;;
2622;SDS011;1321;48.690;9.022;2023-05-10T05:09:41;16.63;;;15.93;;
2622;SDS011;1321;48.690;9.022;2023-05-10T05:12:43;16.57;;;16.07;;
2622;SDS011;1321;48.690;9.022;2023-05-10T05:15:23;16.57;;;16.07;;
2622;SDS011;1321;48.690;9.022;2023-05-10T05:18:16;15.90;;;15.50;;
2622;SDS011;1321;48.690;9.022;2023-05-10T05:21:00;16.67;;;16.07;;
2622;SDS011;1321;48.690;9.022;2023-05-10T05:23:57;16.63;;;16.03;;
2622;SDS011;1321;48.690;9.022;2023-05-10T05:27:05;16.20;;;15.70;;
2622;SDS011;1321;48.690;9.022;2023-05-10T05:29:58;16.27;;;15.77;;
2622;SDS011;1321;48.690;9.022;2023-05-10T05:33:16;15.90;;;15.40;;
2622;SDS011;1321;48.690;9.022;2023-05-10T05:36:28;16.27;;;15.70;;
2622;SDS011;1321;48.690;9.022;2023-05-10T05:39:10;16.50;;;15.83;;
2622;SDS011;1321;48.690;9.022;2023-05-10T05:41:52;16.70;;;16.10;;
2622;SDS011;1321;48.690;9.022;2023-05-10T05:44:38;16.23;;;15.73;;
2622;SDS011;1321;48.690;9.022;2023-05-10T05:50:56;15.90;;;15.50;;
2622;SDS011;1321;48.690;9.022;2023-05-10T05:53:48;15.97;;;15.47;;
2622;SDS011;1321;48.690;9.022;2023-05-10T05:56:37;16.60;;;16.10;;
2622;SDS011;1321;48.690;9.022;2023-05-10T06:03:15;16.10;;;15.60;;
2622;SDS011;1321;48.690;9.022;2023-05-10T06:06:15;16.50;;;15.80;;
2622;SDS011;1321;48.690;9.022;2023-05-10T06:09:14;16.17;;;15.77;;
2622;SDS011;1321;48.690;9.022;2023-05-10T06:12:01;15.90;;;15.50;;
2622;SDS011;1321;48.690;9.022;2023-05-10T06:15:10;16.67;;;16.17;;
2622;SDS011;1321;48.690;9.022;2023-05-10T06:18:03;16.70;;;16.20;;
2622;SDS011;1321;48.690;9.022;2023-05-10T06:21:04;16.37;;;15.97;;
2622;SDS011;1321;48.690;9.022;2023-05-10T06:24:05;16.13;;;15.63;;
2622;SDS011;1321;48.690;9.022;2023-05-10T06:30:35;16.60;;;16.10;;
2622;SDS011;1321;48.690;9.022;2023-05-10T06:33:30;16.30;;;15.80;;
2622;SDS011;1321;48.690;9.022;2023-05-10T06:36:18;16.10;;;15.60;;
2622;SDS011;1321;48.690;9.022;2023-05-10T06:39:06;16.50;;;16.00;;
2622;SDS011;1321;48.690;9.022;2023-05-10T06:42:01;16.23;;;15.73;;
2622;SDS011;1321;48.690;9.022;2023-05-10T06:44:55;15.80;;;15.40;;
2622;SDS011;1321;48.690;9.022;2023-05-10T06:48:07;16.40;;;15.70;;
2622;SDS011;1321;48.690;9.022;2023-05-10T06:50:58;16.27;;;15.77;;
2622;SDS011;1321;48.690;9.022;2023-05-10T06:53:49;16.60;;;15.90;;
2622;SDS011;1321;48.690;9.022;2023-05-10T06:56:52;16.37;;;15.90;;
2622;SDS011;1321;48.690;9.022;2023-05-10T07:03:09;16.73;;;16.13;;
2622;SDS011;1321;48.690;9.022;2023-05-10T07:06:09;16.53;;;15.93;;
2622;SDS011;1321;48.690;9.022;2023-05-10T07:09:37;16.13;;;15.63;;
2622;SDS011;1321;48.690;9.022;2023-05-10T07:12:22;16.20;;;15.67;;
2622;SDS011;1321;48.690;9.022;2023-05-10T07:15:16;16.80;;;16.23;;
2622;SDS011;1321;48.690;9.022;2023-05-10T07:18:19;16.20;;;15.80;;
2622;SDS011;1321;48.690;9.022;2023-05-10T07:21:44;16.17;;;15.67;;
2622;SDS011;1321;48.690;9.022;2023-05-10T07:24:27;16.60;;;16.00;;
2622;SDS011;1321;48.690;9.022;2023-05-10T07:27:34;13.83;;;13.53;;
2622;SDS011;1321;48.690;9.022;2023-05-10T07:30:54;14.10;;;13.60;;
2622;SDS011;1321;48.690;9.022;2023-05-10T07:33:57;13.60;;;13.30;;
2622;SDS011;1321;48.690;9.022;2023-05-10T07:37:13;14.40;;;14.00;;
2622;SDS011;1321;48.690;9.022;2023-05-10T07:40:00;14.10;;;13.70;;
2622;SDS011;1321;48.690;9.022;2023-05-10T07:43:10;13.97;;;13.67;;
2622;SDS011;1321;48.690;9.022;2023-05-10T07:46:05;13.63;;;13.23;;
2622;SDS011;1321;48.690;9.022;2023-05-10T07:52:22;14.00;;;13.50;;
2622;SDS011;1321;48.690;9.022;2023-05-10T07:55:52;13.93;;;13.60;;
2622;SDS011;1321;48.690;9.022;2023-05-10T07:58:44;14.30;;;13.93;;
2622;SDS011;1321;48.690;9.022;2023-05-10T08:01:57;14.07;;;13.67;;
2622;SDS011;1321;48.690;9.022;2023-05-10T08:05:10;13.97;;;13.67;;
2622;SDS011;1321;48.690;9.022;2023-05-10T08:07:58;15.10;;;14.60;;
2622;SDS011;1321;48.690;9.022;2023-05-10T08:10:52;14.37;;;13.90;;
2622;SDS011;1321;48.690;9.022;2023-05-10T08:13:49;14.40;;;13.80;;
2622;SDS011;1321;48.690;9.022;2023-05-10T08:16:43;13.87;;;13.47;;
2622;SDS011;1321;48.690;9.022;2023-05-10T08:19:43;15.47;;;14.83;;
2622;SDS011;1321;48.690;9.022;2023-05-10T08:22:44;14.00;;;13.70;;
2622;SDS011;1321;48.690;9.022;2023-05-10T08:25:35;14.30;;;14.00;;
2622;SDS011;1321;48.690;9.022;2023-05-10T08:28:43;14.73;;;14.13;;
2622;SDS011;1321;48.690;9.022;2023-05-10T08:31:46;14.10;;;13.80;;
2622;SDS011;1321;48.690;9.022;2023-05-10T08:35:28;14.43;;;13.87;;
2622;SDS011;1321;48.690;9.022;2023-05-10T08:38:55;14.57;;;14.17;;
2622;SDS011;1321;48.690;9.022;2023-05-10T08:42:01;13.80;;;13.50;;
2622;SDS011;1321;48.690;9.022;2023-05-10T08:45:01;14.40;;;14.10;;
2622;SDS011;1321;48.690;9.022;2023-05-10T08:48:22;14.70;;;14.20;;
2622;SDS011;1321;48.690;9.022;2023-05-10T08:51:37;14.33;;;14.03;;
2622;SDS011;1321;48.690;9.022;2023-05-10T08:57:48;14.30;;;13.77;;
2622;SDS011;1321;48.690;9.022;2023-05-10T09:00:45;14.00;;;13.70;;
2622;SDS011;1321;48.690;9.022;2023-05-10T09:06:50;13.80;;;13.50;;
2622;SDS011;1321;48.690;9.022;2023-05-10T09:10:26;14.37;;;13.97;;
2622;SDS011;1321;48.690;9.022;2023-05-10T09:14:10;13.90;;;13.60;;
2622;SDS011;1321;48.690;9.022;2023-05-10T09:17:18;14.53;;;14.10;;
2622;SDS011;1321;48.690;9.022;2023-05-10T09:20:34;14.07;;;13.73;;
2622;SDS011;1321;48.690;9.022;2023-05-10T09:23:42;13.80;;;13.50;;
2622;SDS011;1321;48.690;9.022;2023-05-10T09:26:51;14.23;;;13.93;;
2622;SDS011;1321;48.690;9.022;2023-05-10T09:29:41;14.50;;;13.80;;
2622;SDS011;1321;48.690;9.022;2023-05-10T09:36:55;13.70;;;13.40;;
2622;SDS011;1321;48.690;9.022;2023-05-10T09:40:11;14.10;;;13.57;;
2622;SDS011;1321;48.690;9.022;2023-05-10T09:43:43;14.80;;;14.40;;
2622;SDS011;1321;48.690;9.022;2023-05-10T09:47:06;14.17;;;13.67;;
2622;SDS011;1321;48.690;9.022;2023-05-10T09:50:16;13.60;;;13.30;;
2622;SDS011;1321;48.690;9.022;2023-05-10T09:53:33;14.10;;;13.70;;
2622;SDS011;1321;48.690;9.022;2023-05-10T09:56:50;14.60;;;14.30;;
2622;SDS011;1321;48.690;9.022;2023-05-10T10:00:23;14.70;;;14.40;;
2622;SDS011;1321;48.690;9.022;2023-05-10T10:03:40;14.30;;;14.00;;
2622;SDS011;1321;48.690;9.022;2023-05-10T10:06:36;14.40;;;14.10;;
2622;SDS011;1321;48.690;9.022;2023-05-10T10:09:59;15.80;;;15.17;;
2622;SDS011;1321;48.690;9.022;2023-05-10T10:12:57;14.30;;;14.00;;
2622;SDS011;1321;48.690;9.022;2023-05-10T10:16:20;13.70;;;13.40;;
2622;SDS011;1321;48.690;9.022;2023-05-10T10:19:48;13.43;;;13.13;;
2622;SDS011;1321;48.690;9.022;2023-05-10T10:22:44;13.63;;;13.33;;
2622;SDS011;1321;48.690;9.022;2023-05-10T10:25:13;13.20;;;12.90;;
2622;SDS011;1321;48.690;9.022;2023-05-10T10:27:45;13.17;;;12.97;;
2622;SDS011;1321;48.690;9.022;2023-05-10T10:30:24;13.50;;;13.20;;
2622;SDS011;1321;48.690;9.022;2023-05-10T10:33:10;13.67;;;13.37;;
2622;SDS011;1321;48.690;9.022;2023-05-10T10:36:02;12.77;;;12.50;;
2622;SDS011;1321;48.690;9.022;2023-05-10T10:46:46;12.90;;;12.70;;
2622;SDS011;1321;48.690;9.022;2023-05-10T10:49:29;13.30;;;12.70;;
2622;SDS011;1321;48.690;9.022;2023-05-10T10:52:15;15.33;;;15.03;;
2622;SDS011;1321;48.690;9.022;2023-05-10T10:54:51;15.90;;;15.50;;
2622;SDS011;1321;48.690;9.022;2023-05-10T11:01:15;16.37;;;15.97;;
2622;SDS011;1321;48.690;9.022;2023-05-10T11:04:17;16.40;;;15.90;;
2622;SDS011;1321;48.690;9.022;2023-05-10T11:10:51;15.70;;;15.30;;
2622;SDS011;1321;48.690;9.022;2023-05-10T11:14:10;15.60;;;15.30;;
2622;SDS011;1321;48.690;9.022;2023-05-10T11:17:25;15.50;;;15.10;;
2622;SDS011;1321;48.690;9.022;2023-05-10T11:20:41;16.30;;;15.70;;
2622;SDS011;1321;48.690;9.022;2023-05-10T11:28:24;15.50;;;15.10;;
2622;SDS011;1321;48.690;9.022;2023-05-10T11:32:09;15.77;;;15.37;;
2622;SDS011;1321;48.690;9.022;2023-05-10T11:43:30;15.70;;;15.30;;
2622;SDS011;1321;48.690;9.022;2023-05-10T11:46:35;15.80;;;15.40;;
2622;SDS011;1321;48.690;9.022;2023-05-10T11:49:53;15.80;;;15.40;;
2622;SDS011;1321;48.690;9.022;2023-05-10T11:52:22;15.80;;;15.40;;
2622;SDS011;1321;48.690;9.022;2023-05-10T11:54:51;16.20;;;15.80;;
2622;SDS011;1321;48.690;9.022;2023-05-10T11:57:20;17.53;;;16.57;;
2622;SDS011;1321;48.690;9.022;2023-05-10T11:59:54;16.27;;;15.87;;
2622;SDS011;1321;48.690;9.022;2023-05-10T12:02:24;16.20;;;15.80;;
2622;SDS011;1321;48.690;9.022;2023-05-10T12:04:53;15.97;;;15.57;;
2622;SDS011;1321;48.690;9.022;2023-05-10T12:11:56;16.63;;;16.13;;
2622;SDS011;1321;48.690;9.022;2023-05-10T12:14:34;16.77;;;16.27;;
2622;SDS011;1321;48.690;9.022;2023-05-10T12:20:12;15.63;;;15.33;;
2622;SDS011;1321;48.690;9.022;2023-05-10T12:26:50;15.77;;;15.37;;
2622;SDS011;1321;48.690;9.022;2023-05-10T12:29:53;15.70;;;15.20;;
2622;SDS011;1321;48.690;9.022;2023-05-10T12:32:54;15.70;;;15.20;;
2622;SDS011;1321;48.690;9.022;2023-05-10T12:36:07;15.50;;;15.10;;
2622;SDS011;1321;48.690;9.022;2023-05-10T12:39:02;15.67;;;15.23;;
2622;SDS011;1321;48.690;9.022;2023-05-10T12:41:58;15.60;;;15.10;;
2622;SDS011;1321;48.690;9.022;2023-05-10T12:44:57;15.50;;;15.00;;
2622;SDS011;1321;48.690;9.022;2023-05-10T12:48:49;15.30;;;14.90;;
2622;SDS011;1321;48.690;9.022;2023-05-10T12:51:59;15.93;;;15.37;;
2622;SDS011;1321;48.690;9.022;2023-05-10T12:54:54;15.33;;;15.00;;
2622;SDS011;1321;48.690;9.022;2023-05-10T12:57:47;15.43;;;14.83;;
2622;SDS011;1321;48.690;9.022;2023-05-10T13:00:15;15.70;;;15.00;;
2622;SDS011;1321;48.690;9.022;2023-05-10T13:02:47;15.33;;;14.80;;
2622;SDS011;1321;48.690;9.022;2023-05-10T13:05:30;15.13;;;14.73;;
2622;SDS011;1321;48.690;9.022;2023-05-10T13:08:27;14.93;;;14.53;;
2622;SDS011;1321;48.690;9.022;2023-05-10T13:11:48;15.00;;;14.50;;
2622;SDS011;1321;48.690;9.022;2023-05-10T13:14:55;15.10;;;14.60;;
2622;SDS011;1321;48.690;9.022;2023-05-10T13:18:19;14.67;;;14.27;;
2622;SDS011;1321;48.690;9.022;2023-05-10T13:25:01;14.83;;;14.33;;
2622;SDS011;1321;48.690;9.022;2023-05-10T13:27:55;14.60;;;13.87;;
2622;SDS011;1321;48.690;9.022;2023-05-10T13:30:26;14.30;;;13.90;;
2622;SDS011;1321;48.690;9.022;2023-05-10T13:32:56;14.50;;;14.20;;
2622;SDS011;1321;48.690;9.022;2023-05-10T13:35:27;15.23;;;14.73;;
2622;SDS011;1321;48.690;9.022;2023-05-10T13:38:44;14.30;;;13.90;;
2622;SDS011;1321;48.690;9.022;2023-05-10T13:42:03;14.40;;;14.00;;
2622;SDS011;1321;48.690;9.022;2023-05-10T13:45:12;14.43;;;14.13;;
2622;SDS011;1321;48.690;9.022;2023-05-10T13:48:09;14.10;;;13.80;;
2622;SDS011;1321;48.690;9.022;2023-05-10T13:51:03;14.17;;;13.77;;
2622;SDS011;1321;48.690;9.022;2023-05-10T13:54:31;14.10;;;13.80;;
2622;SDS011;1321;48.690;9.022;2023-05-10T14:01:01;14.17;;;13.60;;
2622;SDS011;1321;48.690;9.022;2023-05-10T14:04:33;14.47;;;13.90;;
2622;SDS011;1321;48.690;9.022;2023-05-10T14:07:27;14.37;;;13.90;;
2622;SDS011;1321;48.690;9.022;2023-05-10T14:10:59;12.70;;;12.30;;
2622;SDS011;1321;48.690;9.022;2023-05-10T14:14:17;13.57;;;13.27;;
2622;SDS011;1321;48.690;9.022;2023-05-10T14:17:16;13.90;;;13.60;;
2622;SDS011;1321;48.690;9.022;2023-05-10T14:20:13;13.57;;;13.17;;
2622;SDS011;1321;48.690;9.022;2023-05-10T14:23:15;13.60;;;13.30;;
2622;SDS011;1321;48.690;9.022;2023-05-10T14:25:51;13.23;;;12.93;;
2622;SDS011;1321;48.690;9.022;2023-05-10T14:32:45;13.70;;;13.20;;
2622;SDS011;1321;48.690;9.022;2023-05-10T14:35:42;14.30;;;13.90;;
2622;SDS011;1321;48.690;9.022;2023-05-10T14:38:13;13.90;;;13.50;;
2622;SDS011;1321;48.690;9.022;2023-05-10T14:40:48;13.37;;;12.90;;
2622;SDS011;1321;48.690;9.022;2023-05-10T14:43:20;13.50;;;13.10;;
2622;SDS011;1321;48.690;9.022;2023-05-10T14:45:55;13.47;;;13.10;;
2622;SDS011;1321;48.690;9.022;2023-05-10T14:49:19;14.23;;;13.90;;
2622;SDS011;1321;48.690;9.022;2023-05-10T14:52:34;14.50;;;13.80;;
2622;SDS011;1321;48.690;9.022;2023-05-10T14:55:38;14.37;;;13.90;;
2622;SDS011;1321;48.690;9.022;2023-05-10T14:59:09;13.37;;;12.77;;
2622;SDS011;1321;48.690;9.022;2023-05-10T15:01:38;13.63;;;13.33;;
2622;SDS011;1321;48.690;9.022;2023-05-10T15:07:55;14.10;;;13.63;;
2622;SDS011;1321;48.690;9.022;2023-05-10T15:10:57;13.43;;;13.13;;
2622;SDS011;1321;48.690;9.022;2023-05-10T15:13:52;14.20;;;13.80;;
2622;SDS011;1321;48.690;9.022;2023-05-10T15:16:52;16.40;;;14.67;;
2622;SDS011;1321;48.690;9.022;2023-05-10T15:19:52;14.40;;;14.10;;
2622;SDS011;1321;48.690;9.022;2023-05-10T15:22:22;14.37;;;13.80;;
2622;SDS011;1321;48.690;9.022;2023-05-10T15:24:50;14.20;;;13.70;;
2622;SDS011;1321;48.690;9.022;2023-05-10T15:27:18;13.97;;;13.57;;
2622;SDS011;1321;48.690;9.022;2023-05-10T15:29:46;14.90;;;14.40;;
2622;SDS011;1321;48.690;9.022;2023-05-10T15:32:15;13.80;;;13.40;;
2622;SDS011;1321;48.690;9.022;2023-05-10T15:34:43;15.63;;;15.03;;
2622;SDS011;1321;48.690;9.022;2023-05-10T15:37:12;14.30;;;13.90;;
2622;SDS011;1321;48.690;9.022;2023-05-10T15:39:41;14.07;;;13.77;;
2622;SDS011;1321;48.690;9.022;2023-05-10T15:42:09;14.03;;;13.73;;
2622;SDS011;1321;48.690;9.022;2023-05-10T15:44:38;14.40;;;13.90;;
2622;SDS011;1321;48.690;9.022;2023-05-10T15:47:06;13.80;;;13.40;;
2622;SDS011;1321;48.690;9.022;2023-05-10T15:49:34;13.60;;;13.30;;
2622;SDS011;1321;48.690;9.022;2023-05-10T15:52:02;14.17;;;13.40;;
2622;SDS011;1321;48.690;9.022;2023-05-10T15:54:30;13.73;;;13.33;;
2622;SDS011;1321;48.690;9.022;2023-05-10T15:57:00;14.00;;;13.60;;
2622;SDS011;1321;48.690;9.022;2023-05-10T15:59:28;14.13;;;13.73;;
2622;SDS011;1321;48.690;9.022;2023-05-10T16:01:56;13.47;;;13.17;;
2622;SDS011;1321;48.690;9.022;2023-05-10T16:04:25;13.40;;;13.10;;
2622;SDS011;1321;48.690;9.022;2023-05-10T16:06:53;13.13;;;12.80;;
2622;SDS011;1321;48.690;9.022;2023-05-10T16:09:21;13.10;;;12.90;;
2622;SDS011;1321;48.690;9.022;2023-05-10T16:11:49;13.90;;;13.60;;
2622;SDS011;1321;48.690;9.022;2023-05-10T16:14:19;13.20;;;13.00;;
2622;SDS011;1321;48.690;9.022;2023-05-10T16:16:50;12.20;;;11.90;;
2622;SDS011;1321;48.690;9.022;2023-05-10T16:19:18;12.80;;;12.40;;
2622;SDS011;1321;48.690;9.022;2023-05-10T16:21:46;13.00;;;12.70;;
2622;SDS011;1321;48.690;9.022;2023-05-10T16:24:15;12.73;;;12.30;;
2622;SDS011;1321;48.690;9.022;2023-05-10T16:26:43;13.17;;;12.37;;
2622;SDS011;1321;48.690;9.022;2023-05-10T16:29:12;12.50;;;12.30;;
2622;SDS011;1321;48.690;9.022;2023-05-10T16:31:41;12.30;;;12.10;;
2622;SDS011;1321;48.690;9.022;2023-05-10T16:34:10;12.80;;;12.50;;
2622;SDS011;1321;48.690;9.022;2023-05-10T16:36:46;12.70;;;12.40;;
2622;SDS011;1321;48.690;9.022;2023-05-10T16:39:18;12.67;;;12.40;;
2622;SDS011;1321;48.690;9.022;2023-05-10T16:41:53;13.10;;;12.70;;
2622;SDS011;1321;48.690;9.022;2023-05-10T16:44:23;12.83;;;12.60;;
2622;SDS011;1321;48.690;9.022;2023-05-10T16:46:54;12.77;;;12.47;;
2622;SDS011;1321;48.690;9.022;2023-05-10T16:49:26;13.50;;;13.10;;
2622;SDS011;1321;48.690;9.022;2023-05-10T16:51:57;13.60;;;13.20;;
2622;SDS011;1321;48.690;9.022;2023-05-10T16:54:28;13.60;;;13.10;;
2622;SDS011;1321;48.690;9.022;2023-05-10T16:56:57;13.60;;;13.20;;
2622;SDS011;1321;48.690;9.022;2023-05-10T16:59:27;13.60;;;13.30;;
2622;SDS011;1321;48.690;9.022;2023-05-10T17:01:58;14.20;;;13.90;;
2622;SDS011;1321;48.690;9.022;2023-05-10T17:04:31;14.40;;;14.00;;
2622;SDS011;1321;48.690;9.022;2023-05-10T17:07:04;15.97;;;14.87;;
2622;SDS011;1321;48.690;9.022;2023-05-10T17:09:35;14.57;;;14.17;;
2622;SDS011;1321;48.690;9.022;2023-05-10T17:12:04;14.90;;;14.37;;
2622;SDS011;1321;48.690;9.022;2023-05-10T17:14:37;14.23;;;13.83;;
2622;SDS011;1321;48.690;9.022;2023-05-10T17:17:10;14.20;;;13.90;;
2622;SDS011;1321;48.690;9.022;2023-05-10T17:20:17;14.40;;;14.10;;
2622;SDS011;1321;48.690;9.022;2023-05-10T17:23:24;13.53;;;13.23;;
2622;SDS011;1321;48.690;9.022;2023-05-10T17:26:24;13.13;;;12.73;;
2622;SDS011;1321;48.690;9.022;2023-05-10T17:29:32;13.47;;;13.07;;
2622;SDS011;1321;48.690;9.022;2023-05-10T17:32:00;14.10;;;13.80;;
2622;SDS011;1321;48.690;9.022;2023-05-10T17:34:31;13.60;;;13.30;;
2622;SDS011;1321;48.690;9.022;2023-05-10T17:37:00;14.30;;;13.90;;
2622;SDS011;1321;48.690;9.022;2023-05-10T17:39:30;15.13;;;14.63;;
2622;SDS011;1321;48.690;9.022;2023-05-10T17:42:04;13.50;;;13.20;;
2622;SDS011;1321;48.690;9.022;2023-05-10T17:44:34;13.90;;;13.50;;
2622;SDS011;1321;48.690;9.022;2023-05-10T17:47:04;14.50;;;14.10;;
2622;SDS011;1321;48.690;9.022;2023-05-10T17:49:35;14.80;;;14.40;;
2622;SDS011;1321;48.690;9.022;2023-05-10T17:52:06;14.83;;;14.50;;
2622;SDS011;1321;48.690;9.022;2023-05-10T17:54:36;16.03;;;15.10;;
2622;SDS011;1321;48.690;9.022;2023-05-10T17:57:06;15.87;;;15.27;;
2622;SDS011;1321;48.690;9.022;2023-05-10T17:59:38;14.93;;;14.53;;
2622;SDS011;1321;48.690;9.022;2023-05-10T18:02:08;15.47;;;15.03;;
2622;SDS011;1321;48.690;9.022;2023-05-10T18:04:47;15.97;;;15.53;;
2622;SDS011;1321;48.690;9.022;2023-05-10T18:07:54;15.03;;;14.57;;
2622;SDS011;1321;48.690;9.022;2023-05-10T18:11:07;14.90;;;14.60;;
2622;SDS011;1321;48.690;9.022;2023-05-10T18:14:10;14.57;;;14.17;;
2622;SDS011;1321;48.690;9.022;2023-05-10T18:20:35;15.50;;;15.10;;
2622;SDS011;1321;48.690;9.022;2023-05-10T18:23:41;15.07;;;14.67;;
2622;SDS011;1321;48.690;9.022;2023-05-10T18:26:37;14.80;;;14.50;;
2622;SDS011;1321;48.690;9.022;2023-05-10T18:29:15;15.20;;;14.80;;
2622;SDS011;1321;48.690;9.022;2023-05-10T18:31:50;14.80;;;14.50;;
2622;SDS011;1321;48.690;9.022;2023-05-10T18:34:20;15.50;;;15.10;;
2622;SDS011;1321;48.690;9.022;2023-05-10T18:37:06;15.17;;;14.77;;
2622;SDS011;1321;48.690;9.022;2023-05-10T18:39:50;15.87;;;15.37;;
2622;SDS011;1321;48.690;9.022;2023-05-10T18:42:25;14.77;;;14.40;;